sensor_id;sensor_type;location;lat;lon;timestamp;pressure;altitude;pressure_sealevel;temperature;humidity
7478;BME280;3780;42.424;25.636;2022-08-18T00:00:47;98597.31;;;24.85;47.62
7478;BME280;3780;42.424;25.636;2022-08-18T00:03:13;98593.09;;;24.72;47.29
7478;BME280;3780;42.424;25.636;2022-08-18T00:05:39;98599.13;;;24.78;48.06
7478;BME280;3780;42.424;25.636;2022-08-18T00:08:05;98614.78;;;24.74;47.34
7478;BME280;3780;42.424;25.636;2022-08-18T00:10:31;98616.69;;;24.70;47.98
7478;BME280;3780;42.424;25.636;2022-08-18T00:12:57;98611.22;;;24.73;48.89
7478;BME280;3780;42.424;25.636;2022-08-18T00:15:23;98616.28;;;24.68;47.56
7478;BME280;3780;42.424;25.636;2022-08-18T00:17:49;98603.50;;;24.59;48.28
7478;BME280;3780;42.424;25.636;2022-08-18T00:20:19;98610.06;;;24.74;48.90
7478;BME280;3780;42.424;25.636;2022-08-18T00:22:45;98611.72;;;24.56;48.61
7478;BME280;3780;42.424;25.636;2022-08-18T00:25:12;98604.94;;;24.34;49.05
7478;BME280;3780;42.424;25.636;2022-08-18T00:27:38;98624.13;;;24.46;49.57
7478;BME280;3780;42.424;25.636;2022-08-18T00:30:08;98589.31;;;24.22;48.81
7478;BME280;3780;42.424;25.636;2022-08-18T00:32:40;98625.63;;;24.44;49.60
7478;BME280;3780;42.424;25.636;2022-08-18T00:35:11;98625.63;;;24.44;49.70
7478;BME280;3780;42.424;25.636;2022-08-18T00:37:41;98617.22;;;24.36;49.77
7478;BME280;3780;42.424;25.636;2022-08-18T00:40:10;98626.34;;;24.41;49.81
7478;BME280;3780;42.424;25.636;2022-08-18T00:42:42;98615.97;;;24.34;49.63
7478;BME280;3780;42.424;25.636;2022-08-18T00:45:13;98625.03;;;24.34;49.74
7478;BME280;3780;42.424;25.636;2022-08-18T00:47:39;98626.66;;;24.35;50.71
7478;BME280;3780;42.424;25.636;2022-08-18T00:50:05;98623.81;;;24.32;50.67
7478;BME280;3780;42.424;25.636;2022-08-18T00:52:31;98613.50;;;24.29;50.50
7478;BME280;3780;42.424;25.636;2022-08-18T00:54:58;98613.06;;;24.27;49.89
7478;BME280;3780;42.424;25.636;2022-08-18T00:57:27;98534.94;;;23.80;49.64
7478;BME280;3780;42.424;25.636;2022-08-18T01:00:00;98617.50;;;24.31;49.00
7478;BME280;3780;42.424;25.636;2022-08-18T01:02:50;98616.25;;;24.29;50.38
7478;BME280;3780;42.424;25.636;2022-08-18T01:05:28;98603.53;;;24.24;50.20
7478;BME280;3780;42.424;25.636;2022-08-18T01:07:54;98608.78;;;24.29;50.57
7478;BME280;3780;42.424;25.636;2022-08-18T01:10:21;98612.00;;;24.31;51.62
7478;BME280;3780;42.424;25.636;2022-08-18T01:12:50;98605.31;;;24.32;52.15
7478;BME280;3780;42.424;25.636;2022-08-18T01:15:18;98615.28;;;24.37;52.04
7478;BME280;3780;42.424;25.636;2022-08-18T01:17:45;98608.44;;;24.31;52.71
7478;BME280;3780;42.424;25.636;2022-08-18T01:20:35;98609.28;;;24.16;53.03
7478;BME280;3780;42.424;25.636;2022-08-18T01:23:21;98581.03;;;24.03;53.51
7478;BME280;3780;42.424;25.636;2022-08-18T01:25:47;98614.88;;;24.19;52.91
7478;BME280;3780;42.424;25.636;2022-08-18T01:28:36;98585.69;;;23.99;52.24
7478;BME280;3780;42.424;25.636;2022-08-18T01:31:03;98614.06;;;24.19;53.11
7478;BME280;3780;42.424;25.636;2022-08-18T01:33:36;98612.38;;;24.14;51.60
7478;BME280;3780;42.424;25.636;2022-08-18T01:36:12;98605.94;;;24.06;51.08
7478;BME280;3780;42.424;25.636;2022-08-18T01:38:45;98609.72;;;24.18;50.96
7478;BME280;3780;42.424;25.636;2022-08-18T01:41:11;98618.41;;;24.20;50.51
7478;BME280;3780;42.424;25.636;2022-08-18T01:43:37;98616.09;;;24.22;50.17
7478;BME280;3780;42.424;25.636;2022-08-18T01:46:04;98603.41;;;24.17;52.07
7478;BME280;3780;42.424;25.636;2022-08-18T01:48:31;98605.97;;;24.26;51.34
7478;BME280;3780;42.424;25.636;2022-08-18T01:50:59;98606.91;;;24.33;50.89
7478;BME280;3780;42.424;25.636;2022-08-18T01:53:24;98515.59;;;23.77;50.92
7478;BME280;3780;42.424;25.636;2022-08-18T01:55:51;98608.50;;;24.34;50.80
7478;BME280;3780;42.424;25.636;2022-08-18T01:58:17;98613.50;;;24.29;52.01
7478;BME280;3780;42.424;25.636;2022-08-18T02:00:43;98567.63;;;24.01;52.46
7478;BME280;3780;42.424;25.636;2022-08-18T02:03:12;98616.88;;;24.22;53.01
7478;BME280;3780;42.424;25.636;2022-08-18T02:05:44;98587.50;;;24.11;52.66
7478;BME280;3780;42.424;25.636;2022-08-18T02:08:11;98579.97;;;24.07;50.96
7478;BME280;3780;42.424;25.636;2022-08-18T02:10:38;98599.06;;;24.16;51.02
7478;BME280;3780;42.424;25.636;2022-08-18T02:13:04;98607.75;;;24.18;50.55
7478;BME280;3780;42.424;25.636;2022-08-18T02:15:30;98608.97;;;24.21;50.79
7478;BME280;3780;42.424;25.636;2022-08-18T02:17:56;98575.16;;;24.04;49.76
7478;BME280;3780;42.424;25.636;2022-08-18T02:20:22;98549.00;;;23.95;50.10
7478;BME280;3780;42.424;25.636;2022-08-18T02:22:49;98609.97;;;24.48;49.96
7478;BME280;3780;42.424;25.636;2022-08-18T02:25:16;98563.31;;;24.20;49.62
7478;BME280;3780;42.424;25.636;2022-08-18T02:27:43;98614.00;;;24.54;50.45
7478;BME280;3780;42.424;25.636;2022-08-18T02:30:11;98602.88;;;24.47;50.74
7478;BME280;3780;42.424;25.636;2022-08-18T02:32:37;98616.50;;;24.59;51.41
7478;BME280;3780;42.424;25.636;2022-08-18T02:35:07;98615.69;;;24.58;50.62
7478;BME280;3780;42.424;25.636;2022-08-18T02:37:33;98615.69;;;24.58;50.21
7478;BME280;3780;42.424;25.636;2022-08-18T02:39:58;98594.72;;;24.34;51.68
7478;BME280;3780;42.424;25.636;2022-08-18T02:42:24;98625.41;;;24.52;51.19
7478;BME280;3780;42.424;25.636;2022-08-18T02:44:50;98598.63;;;24.33;50.46
7478;BME280;3780;42.424;25.636;2022-08-18T02:47:18;98625.78;;;24.51;51.04
7478;BME280;3780;42.424;25.636;2022-08-18T02:49:44;98595.00;;;24.29;51.57
7478;BME280;3780;42.424;25.636;2022-08-18T02:52:10;98597.75;;;24.29;50.41
7478;BME280;3780;42.424;25.636;2022-08-18T02:54:35;98578.19;;;24.15;50.55
7478;BME280;3780;42.424;25.636;2022-08-18T02:57:06;98610.91;;;24.36;50.52
7478;BME280;3780;42.424;25.636;2022-08-18T02:59:32;98617.81;;;24.46;50.31
7478;BME280;3780;42.424;25.636;2022-08-18T03:01:58;98613.88;;;24.47;51.14
7478;BME280;3780;42.424;25.636;2022-08-18T03:04:27;98617.50;;;24.51;50.46
7478;BME280;3780;42.424;25.636;2022-08-18T03:06:54;98613.94;;;24.50;50.42
7478;BME280;3780;42.424;25.636;2022-08-18T03:09:20;98622.97;;;24.47;50.95
7478;BME280;3780;42.424;25.636;2022-08-18T03:11:46;98544.44;;;24.02;50.09
7478;BME280;3780;42.424;25.636;2022-08-18T03:14:13;98586.91;;;24.36;49.92
7478;BME280;3780;42.424;25.636;2022-08-18T03:16:41;98614.53;;;24.59;49.84
7478;BME280;3780;42.424;25.636;2022-08-18T03:19:07;98615.75;;;24.62;50.88
7478;BME280;3780;42.424;25.636;2022-08-18T03:21:33;98609.66;;;24.53;50.85
7478;BME280;3780;42.424;25.636;2022-08-18T03:24:01;98614.31;;;24.49;51.26
7478;BME280;3780;42.424;25.636;2022-08-18T03:26:28;98627.31;;;24.48;50.41
7478;BME280;3780;42.424;25.636;2022-08-18T03:28:54;98588.91;;;24.20;51.28
7478;BME280;3780;42.424;25.636;2022-08-18T03:31:22;98635.16;;;24.46;51.34
7478;BME280;3780;42.424;25.636;2022-08-18T03:33:48;98637.13;;;24.46;51.15
7478;BME280;3780;42.424;25.636;2022-08-18T03:36:21;98615.66;;;24.20;51.54
7478;BME280;3780;42.424;25.636;2022-08-18T03:38:49;98608.56;;;24.19;51.43
7478;BME280;3780;42.424;25.636;2022-08-18T03:41:18;98608.41;;;24.12;52.62
7478;BME280;3780;42.424;25.636;2022-08-18T03:43:44;98555.72;;;23.78;53.29
7478;BME280;3780;42.424;25.636;2022-08-18T03:46:12;98630.66;;;24.22;53.01
7478;BME280;3780;42.424;25.636;2022-08-18T03:48:40;98634.16;;;24.19;53.86
7478;BME280;3780;42.424;25.636;2022-08-18T03:51:26;98619.78;;;24.10;52.96
7478;BME280;3780;42.424;25.636;2022-08-18T03:53:54;98612.94;;;24.04;53.48
7478;BME280;3780;42.424;25.636;2022-08-18T03:56:24;98550.28;;;23.46;53.14
7478;BME280;3780;42.424;25.636;2022-08-18T03:58:55;98636.34;;;23.94;53.48
7478;BME280;3780;42.424;25.636;2022-08-18T04:01:23;98632.56;;;23.83;53.70
7478;BME280;3780;42.424;25.636;2022-08-18T04:03:55;98640.44;;;23.85;53.31
7478;BME280;3780;42.424;25.636;2022-08-18T04:06:26;98642.69;;;23.79;53.47
7478;BME280;3780;42.424;25.636;2022-08-18T04:08:57;98645.16;;;23.84;53.63
7478;BME280;3780;42.424;25.636;2022-08-18T04:11:25;98633.84;;;23.70;53.84
7478;BME280;3780;42.424;25.636;2022-08-18T04:13:53;98653.28;;;23.77;54.29
7478;BME280;3780;42.424;25.636;2022-08-18T04:16:23;98593.22;;;23.51;54.73
7478;BME280;3780;42.424;25.636;2022-08-18T04:18:49;98627.34;;;23.78;54.83
7478;BME280;3780;42.424;25.636;2022-08-18T04:21:14;98625.88;;;23.84;55.29
7478;BME280;3780;42.424;25.636;2022-08-18T04:23:40;98615.41;;;23.74;54.84
7478;BME280;3780;42.424;25.636;2022-08-18T04:26:07;98652.06;;;23.94;55.38
7478;BME280;3780;42.424;25.636;2022-08-18T04:28:33;98604.25;;;23.67;54.90
7478;BME280;3780;42.424;25.636;2022-08-18T04:31:09;98673.56;;;24.04;54.22
7478;BME280;3780;42.424;25.636;2022-08-18T04:33:36;98597.25;;;23.38;55.23
7478;BME280;3780;42.424;25.636;2022-08-18T04:36:13;98676.47;;;24.11;55.04
7478;BME280;3780;42.424;25.636;2022-08-18T04:38:40;98676.81;;;24.25;54.70
7478;BME280;3780;42.424;25.636;2022-08-18T04:41:10;98664.16;;;24.24;54.71
7478;BME280;3780;42.424;25.636;2022-08-18T04:43:37;98634.31;;;24.26;54.92
7478;BME280;3780;42.424;25.636;2022-08-18T04:46:03;98622.13;;;24.27;53.91
7478;BME280;3780;42.424;25.636;2022-08-18T04:48:30;98670.16;;;24.65;54.19
7478;BME280;3780;42.424;25.636;2022-08-18T04:51:10;98635.28;;;24.53;52.74
7478;BME280;3780;42.424;25.636;2022-08-18T04:53:37;98605.31;;;24.52;53.57
7478;BME280;3780;42.424;25.636;2022-08-18T04:56:24;98669.00;;;25.05;51.81
7478;BME280;3780;42.424;25.636;2022-08-18T05:01:19;98590.66;;;24.90;51.75
7478;BME280;3780;42.424;25.636;2022-08-18T05:03:47;98650.53;;;25.55;51.91
7478;BME280;3780;42.424;25.636;2022-08-18T05:06:13;98683.94;;;25.92;51.59
7478;BME280;3780;42.424;25.636;2022-08-18T05:08:39;98686.59;;;26.11;51.09
7478;BME280;3780;42.424;25.636;2022-08-18T05:11:05;98694.38;;;26.32;50.50
7478;BME280;3780;42.424;25.636;2022-08-18T05:13:30;98666.31;;;26.30;49.60
7478;BME280;3780;42.424;25.636;2022-08-18T05:15:57;98667.28;;;26.41;51.53
7478;BME280;3780;42.424;25.636;2022-08-18T05:18:30;98684.56;;;26.64;50.76
7478;BME280;3780;42.424;25.636;2022-08-18T05:20:56;98695.56;;;26.94;49.76
7478;BME280;3780;42.424;25.636;2022-08-18T05:23:22;98678.38;;;27.08;48.88
7478;BME280;3780;42.424;25.636;2022-08-18T05:25:48;98691.63;;;27.29;48.02
7478;BME280;3780;42.424;25.636;2022-08-18T05:28:14;98700.91;;;27.47;46.99
7478;BME280;3780;42.424;25.636;2022-08-18T05:30:41;98695.88;;;27.60;46.11
7478;BME280;3780;42.424;25.636;2022-08-18T05:33:08;98710.31;;;27.76;45.40
7478;BME280;3780;42.424;25.636;2022-08-18T05:35:43;98683.41;;;27.81;48.35
7478;BME280;3780;42.424;25.636;2022-08-18T05:41:14;98706.81;;;28.42;44.14
7478;BME280;3780;42.424;25.636;2022-08-18T05:43:44;98704.38;;;28.33;44.33
7478;BME280;3780;42.424;25.636;2022-08-18T05:46:11;98670.16;;;28.15;43.45
7478;BME280;3780;42.424;25.636;2022-08-18T05:48:37;98660.28;;;28.17;43.71
7478;BME280;3780;42.424;25.636;2022-08-18T05:51:11;98681.09;;;28.48;42.56
7478;BME280;3780;42.424;25.636;2022-08-18T05:53:39;98695.88;;;28.81;42.01
7478;BME280;3780;42.424;25.636;2022-08-18T05:56:29;98696.75;;;28.96;41.20
7478;BME280;3780;42.424;25.636;2022-08-18T06:04:53;98700.88;;;29.62;41.53
7478;BME280;3780;42.424;25.636;2022-08-18T06:10:05;98701.22;;;30.25;40.86
7478;BME280;3780;42.424;25.636;2022-08-18T06:12:37;98714.31;;;30.49;39.75
7478;BME280;3780;42.424;25.636;2022-08-18T06:15:12;98720.63;;;30.64;39.96
7478;BME280;3780;42.424;25.636;2022-08-18T06:20:51;98713.28;;;31.09;41.09
7478;BME280;3780;42.424;25.636;2022-08-18T06:31:51;98723.50;;;31.37;39.56
7478;BME280;3780;42.424;25.636;2022-08-18T06:37:05;98710.84;;;31.18;38.13
7478;BME280;3780;42.424;25.636;2022-08-18T06:39:51;98700.16;;;31.06;37.50
7478;BME280;3780;42.424;25.636;2022-08-18T06:42:18;98637.06;;;30.78;39.25
7478;BME280;3780;42.424;25.636;2022-08-18T06:44:54;98725.81;;;31.50;39.03
7478;BME280;3780;42.424;25.636;2022-08-18T06:47:52;98726.41;;;31.79;37.71
7478;BME280;3780;42.424;25.636;2022-08-18T06:50:27;98721.00;;;32.06;36.81
7478;BME280;3780;42.424;25.636;2022-08-18T06:53:00;98706.06;;;32.23;35.30
7478;BME280;3780;42.424;25.636;2022-08-18T06:55:33;98729.47;;;32.40;34.95
7478;BME280;3780;42.424;25.636;2022-08-18T06:58:05;98664.75;;;32.11;34.56
7478;BME280;3780;42.424;25.636;2022-08-18T07:00:33;98716.19;;;32.51;34.43
7478;BME280;3780;42.424;25.636;2022-08-18T07:03:16;98646.44;;;32.10;35.69
7478;BME280;3780;42.424;25.636;2022-08-18T07:06:05;98713.97;;;32.69;33.16
7478;BME280;3780;42.424;25.636;2022-08-18T07:08:40;98694.44;;;32.69;33.05
7478;BME280;3780;42.424;25.636;2022-08-18T07:11:23;98712.16;;;32.90;33.00
7478;BME280;3780;42.424;25.636;2022-08-18T07:13:51;98714.88;;;32.93;33.63
7478;BME280;3780;42.424;25.636;2022-08-18T07:16:23;98711.06;;;33.10;33.80
7478;BME280;3780;42.424;25.636;2022-08-18T07:18:50;98712.75;;;33.04;31.43
7478;BME280;3780;42.424;25.636;2022-08-18T07:21:27;98695.41;;;32.86;30.84
7478;BME280;3780;42.424;25.636;2022-08-18T07:24:03;98700.91;;;32.93;31.60
7478;BME280;3780;42.424;25.636;2022-08-18T07:26:29;98698.31;;;33.09;32.33
7478;BME280;3780;42.424;25.636;2022-08-18T07:29:12;98697.75;;;33.22;30.37
7478;BME280;3780;42.424;25.636;2022-08-18T07:31:45;98712.28;;;33.40;32.82
7478;BME280;3780;42.424;25.636;2022-08-18T07:34:20;98709.50;;;33.36;30.13
7478;BME280;3780;42.424;25.636;2022-08-18T07:37:01;98701.97;;;33.60;29.76
7478;BME280;3780;42.424;25.636;2022-08-18T07:39:42;98705.19;;;33.59;29.28
7478;BME280;3780;42.424;25.636;2022-08-18T07:42:25;98709.84;;;33.92;30.55
7478;BME280;3780;42.424;25.636;2022-08-18T07:45:00;98708.97;;;33.99;28.89
7478;BME280;3780;42.424;25.636;2022-08-18T07:47:49;98712.28;;;34.14;29.14
7478;BME280;3780;42.424;25.636;2022-08-18T07:50:16;98705.50;;;34.35;28.46
7478;BME280;3780;42.424;25.636;2022-08-18T07:55:40;98701.72;;;34.84;27.96
7478;BME280;3780;42.424;25.636;2022-08-18T08:01:02;98712.81;;;35.28;27.62
7478;BME280;3780;42.424;25.636;2022-08-18T08:06:18;98684.41;;;35.09;27.10
7478;BME280;3780;42.424;25.636;2022-08-18T08:14:15;98717.44;;;35.70;26.27
7478;BME280;3780;42.424;25.636;2022-08-18T08:16:48;98697.88;;;35.51;26.60
7478;BME280;3780;42.424;25.636;2022-08-18T08:19:52;98699.75;;;35.21;26.48
7478;BME280;3780;42.424;25.636;2022-08-18T08:25:23;98671.97;;;35.10;27.01
7478;BME280;3780;42.424;25.636;2022-08-18T08:28:07;98695.50;;;35.65;26.26
7478;BME280;3780;42.424;25.636;2022-08-18T08:33:28;98698.59;;;36.49;25.17
7478;BME280;3780;42.424;25.636;2022-08-18T08:36:22;98703.78;;;36.50;25.27
7478;BME280;3780;42.424;25.636;2022-08-18T08:38:54;98682.13;;;36.35;25.45
7478;BME280;3780;42.424;25.636;2022-08-18T08:44:07;98705.69;;;36.82;23.89
7478;BME280;3780;42.424;25.636;2022-08-18T08:46:53;98705.28;;;36.68;24.28
7478;BME280;3780;42.424;25.636;2022-08-18T08:51:55;98694.16;;;37.19;24.49
7478;BME280;3780;42.424;25.636;2022-08-18T08:54:28;98693.97;;;37.38;24.23
7478;BME280;3780;42.424;25.636;2022-08-18T08:56:58;98694.28;;;37.40;23.31
7478;BME280;3780;42.424;25.636;2022-08-18T08:59:25;98693.94;;;37.64;23.08
7478;BME280;3780;42.424;25.636;2022-08-18T09:02:27;98666.66;;;37.74;22.46
7478;BME280;3780;42.424;25.636;2022-08-18T09:05:33;98700.56;;;37.57;23.11
7478;BME280;3780;42.424;25.636;2022-08-18T09:19:35;98692.88;;;37.96;22.44
7478;BME280;3780;42.424;25.636;2022-08-18T09:25:10;98689.59;;;37.97;22.08
7478;BME280;3780;42.424;25.636;2022-08-18T09:27:44;98670.31;;;38.21;21.85
7478;BME280;3780;42.424;25.636;2022-08-18T09:30:43;98684.69;;;38.80;21.19
7478;BME280;3780;42.424;25.636;2022-08-18T09:33:22;98686.69;;;39.32;21.02
7478;BME280;3780;42.424;25.636;2022-08-18T09:38:57;98687.38;;;39.15;21.27
7478;BME280;3780;42.424;25.636;2022-08-18T09:41:56;98676.97;;;38.37;21.39
7478;BME280;3780;42.424;25.636;2022-08-18T09:57:26;98649.91;;;37.57;24.25
7478;BME280;3780;42.424;25.636;2022-08-18T09:59:56;98675.50;;;38.67;21.12
7478;BME280;3780;42.424;25.636;2022-08-18T10:26:59;98618.56;;;40.71;18.59
7478;BME280;3780;42.424;25.636;2022-08-18T10:37:17;98680.41;;;39.87;20.07
7478;BME280;3780;42.424;25.636;2022-08-18T10:39:47;98669.44;;;39.30;20.86
7478;BME280;3780;42.424;25.636;2022-08-18T10:42:27;98661.66;;;40.11;20.22
7478;BME280;3780;42.424;25.636;2022-08-18T10:45:13;98668.22;;;40.27;20.03
7478;BME280;3780;42.424;25.636;2022-08-18T10:47:40;98670.38;;;40.87;19.31
7478;BME280;3780;42.424;25.636;2022-08-18T10:50:20;98643.13;;;41.50;18.44
7478;BME280;3780;42.424;25.636;2022-08-18T10:52:57;98610.34;;;40.92;19.26
7478;BME280;3780;42.424;25.636;2022-08-18T10:55:50;98666.47;;;42.31;18.30
7478;BME280;3780;42.424;25.636;2022-08-18T10:58:43;98663.78;;;42.81;17.74
7478;BME280;3780;42.424;25.636;2022-08-18T11:04:08;98659.91;;;42.93;16.69
7478;BME280;3780;42.424;25.636;2022-08-18T11:06:43;98668.56;;;43.34;16.54
7478;BME280;3780;42.424;25.636;2022-08-18T11:09:12;98661.50;;;43.65;17.00
7478;BME280;3780;42.424;25.636;2022-08-18T11:11:41;98669.94;;;43.59;16.46
7478;BME280;3780;42.424;25.636;2022-08-18T11:19:38;98645.81;;;41.44;18.72
7478;BME280;3780;42.424;25.636;2022-08-18T11:22:05;98652.72;;;41.67;17.89
7478;BME280;3780;42.424;25.636;2022-08-18T11:24:31;98639.47;;;41.82;18.34
7478;BME280;3780;42.424;25.636;2022-08-18T11:27:17;98609.50;;;42.05;18.24
7478;BME280;3780;42.424;25.636;2022-08-18T11:29:43;98644.31;;;42.89;17.35
7478;BME280;3780;42.424;25.636;2022-08-18T11:32:29;98647.28;;;42.80;16.99
7478;BME280;3780;42.424;25.636;2022-08-18T11:37:43;98643.38;;;43.27;17.20
7478;BME280;3780;42.424;25.636;2022-08-18T11:45:58;98613.81;;;42.54;16.99
7478;BME280;3780;42.424;25.636;2022-08-18T11:56:04;98619.25;;;43.17;16.79
7478;BME280;3780;42.424;25.636;2022-08-18T11:58:58;98620.53;;;42.27;17.49
7478;BME280;3780;42.424;25.636;2022-08-18T12:01:32;98624.59;;;41.87;17.41
7478;BME280;3780;42.424;25.636;2022-08-18T12:04:13;98621.47;;;41.38;18.80
7478;BME280;3780;42.424;25.636;2022-08-18T12:11:57;98597.75;;;43.66;16.87
7478;BME280;3780;42.424;25.636;2022-08-18T12:14:27;98590.84;;;44.65;15.08
7478;BME280;3780;42.424;25.636;2022-08-18T12:16:53;98600.34;;;44.30;15.39
7478;BME280;3780;42.424;25.636;2022-08-18T12:19:20;98600.47;;;43.75;16.26
7478;BME280;3780;42.424;25.636;2022-08-18T12:21:50;98576.72;;;43.37;15.90
7478;BME280;3780;42.424;25.636;2022-08-18T12:24:25;98606.97;;;42.90;16.57
7478;BME280;3780;42.424;25.636;2022-08-18T12:26:51;98596.16;;;41.58;17.30
7478;BME280;3780;42.424;25.636;2022-08-18T12:29:17;98598.38;;;40.97;18.67
7478;BME280;3780;42.424;25.636;2022-08-18T12:31:47;98577.66;;;41.24;18.12
7478;BME280;3780;42.424;25.636;2022-08-18T12:34:23;98585.53;;;41.53;18.39
7478;BME280;3780;42.424;25.636;2022-08-18T12:36:53;98571.47;;;41.82;17.96
7478;BME280;3780;42.424;25.636;2022-08-18T12:39:19;98576.28;;;42.30;16.97
7478;BME280;3780;42.424;25.636;2022-08-18T12:41:45;98571.97;;;41.81;17.19
7478;BME280;3780;42.424;25.636;2022-08-18T12:44:11;98556.22;;;40.66;18.41
7478;BME280;3780;42.424;25.636;2022-08-18T12:46:36;98561.34;;;39.70;19.98
7478;BME280;3780;42.424;25.636;2022-08-18T12:49:04;98556.22;;;38.70;21.06
7478;BME280;3780;42.424;25.636;2022-08-18T12:51:30;98556.22;;;38.70;21.06
7478;BME280;3780;42.424;25.636;2022-08-18T12:53:56;98563.94;;;38.57;21.97
7478;BME280;3780;42.424;25.636;2022-08-18T12:56:24;98574.13;;;38.85;20.44
7478;BME280;3780;42.424;25.636;2022-08-18T12:58:51;98574.16;;;38.94;20.74
7478;BME280;3780;42.424;25.636;2022-08-18T13:01:18;98570.56;;;39.03;20.61
7478;BME280;3780;42.424;25.636;2022-08-18T13:03:45;98563.53;;;39.07;20.87
7478;BME280;3780;42.424;25.636;2022-08-18T13:06:11;98559.69;;;39.23;20.93
7478;BME280;3780;42.424;25.636;2022-08-18T13:08:37;98567.69;;;39.25;20.81
7478;BME280;3780;42.424;25.636;2022-08-18T13:11:03;98556.16;;;39.01;21.14
7478;BME280;3780;42.424;25.636;2022-08-18T13:13:36;98571.28;;;38.54;20.90
7478;BME280;3780;42.424;25.636;2022-08-18T13:16:03;98571.28;;;38.54;20.90
7478;BME280;3780;42.424;25.636;2022-08-18T13:18:29;98566.03;;;37.65;22.27
7478;BME280;3780;42.424;25.636;2022-08-18T13:20:56;65461.69;;;-142.90;100.00
7478;BME280;3780;42.424;25.636;2022-08-18T13:23:22;98550.25;;;37.46;23.31
7478;BME280;3780;42.424;25.636;2022-08-18T13:25:48;98484.28;;;37.12;22.86
7478;BME280;3780;42.424;25.636;2022-08-18T13:28:15;98545.38;;;37.59;22.25
7478;BME280;3780;42.424;25.636;2022-08-18T13:30:41;98551.41;;;37.70;22.54
7478;BME280;3780;42.424;25.636;2022-08-18T13:33:07;98549.84;;;37.69;22.29
7478;BME280;3780;42.424;25.636;2022-08-18T13:35:33;98551.56;;;37.54;22.20
7478;BME280;3780;42.424;25.636;2022-08-18T13:37:58;98545.56;;;37.30;22.81
7478;BME280;3780;42.424;25.636;2022-08-18T13:40:24;98532.72;;;37.29;22.49
7478;BME280;3780;42.424;25.636;2022-08-18T13:42:49;98525.44;;;37.31;22.83
7478;BME280;3780;42.424;25.636;2022-08-18T13:45:19;98559.59;;;37.43;22.23
7478;BME280;3780;42.424;25.636;2022-08-18T13:47:46;98554.59;;;36.99;22.49
7478;BME280;3780;42.424;25.636;2022-08-18T13:50:12;98538.28;;;36.69;23.38
7478;BME280;3780;42.424;25.636;2022-08-18T13:52:39;98564.94;;;36.90;23.80
7478;BME280;3780;42.424;25.636;2022-08-18T13:55:09;98562.78;;;36.94;23.18
7478;BME280;3780;42.424;25.636;2022-08-18T13:57:37;98546.38;;;36.79;23.27
7478;BME280;3780;42.424;25.636;2022-08-18T14:00:06;98568.59;;;36.61;22.83
7478;BME280;3780;42.424;25.636;2022-08-18T14:02:32;98503.91;;;36.10;23.41
7478;BME280;3780;42.424;25.636;2022-08-18T14:04:58;98554.19;;;36.46;23.76
7478;BME280;3780;42.424;25.636;2022-08-18T14:07:23;98548.81;;;36.39;23.75
7478;BME280;3780;42.424;25.636;2022-08-18T14:09:50;98540.88;;;36.21;24.88
7478;BME280;3780;42.424;25.636;2022-08-18T14:12:19;98557.25;;;36.10;24.62
7478;BME280;3780;42.424;25.636;2022-08-18T14:14:45;98558.78;;;35.98;25.04
7478;BME280;3780;42.424;25.636;2022-08-18T14:17:11;98551.19;;;35.66;25.46
7478;BME280;3780;42.424;25.636;2022-08-18T14:19:37;98545.19;;;35.52;25.19
7478;BME280;3780;42.424;25.636;2022-08-18T14:22:22;98544.75;;;35.53;25.65
7478;BME280;3780;42.424;25.636;2022-08-18T14:25:06;98519.88;;;35.23;24.81
7478;BME280;3780;42.424;25.636;2022-08-18T14:27:50;98539.41;;;35.42;25.50
7478;BME280;3780;42.424;25.636;2022-08-18T14:30:16;98554.06;;;35.50;24.84
7478;BME280;3780;42.424;25.636;2022-08-18T14:32:43;98549.69;;;35.49;25.18
7478;BME280;3780;42.424;25.636;2022-08-18T14:35:10;98551.25;;;35.50;25.54
7478;BME280;3780;42.424;25.636;2022-08-18T14:37:36;98548.88;;;35.49;26.21
7478;BME280;3780;42.424;25.636;2022-08-18T14:40:03;98549.16;;;35.38;25.74
7478;BME280;3780;42.424;25.636;2022-08-18T14:42:32;98523.56;;;35.20;25.74
7478;BME280;3780;42.424;25.636;2022-08-18T14:44:58;98544.94;;;35.13;24.36
7478;BME280;3780;42.424;25.636;2022-08-18T14:47:24;98515.75;;;34.95;25.71
7478;BME280;3780;42.424;25.636;2022-08-18T14:49:54;98543.00;;;34.94;26.22
7478;BME280;3780;42.424;25.636;2022-08-18T14:52:21;98534.56;;;34.78;26.24
7478;BME280;3780;42.424;25.636;2022-08-18T14:54:48;98534.19;;;34.60;26.03
7478;BME280;3780;42.424;25.636;2022-08-18T14:57:14;98534.13;;;34.43;26.96
7478;BME280;3780;42.424;25.636;2022-08-18T14:59:39;98546.84;;;34.28;26.65
7478;BME280;3780;42.424;25.636;2022-08-18T15:02:06;98543.63;;;34.10;26.17
7478;BME280;3780;42.424;25.636;2022-08-18T15:04:34;98545.34;;;34.04;27.06
7478;BME280;3780;42.424;25.636;2022-08-18T15:07:02;98516.47;;;33.87;27.09
7478;BME280;3780;42.424;25.636;2022-08-18T15:09:28;98534.81;;;34.11;27.55
7478;BME280;3780;42.424;25.636;2022-08-18T15:11:58;98533.28;;;34.07;27.75
7478;BME280;3780;42.424;25.636;2022-08-18T15:14:25;98535.28;;;34.06;27.89
7478;BME280;3780;42.424;25.636;2022-08-18T15:16:51;98518.47;;;33.86;27.77
7478;BME280;3780;42.424;25.636;2022-08-18T15:19:17;98529.75;;;33.83;27.87
7478;BME280;3780;42.424;25.636;2022-08-18T15:21:43;98537.44;;;33.79;27.70
7478;BME280;3780;42.424;25.636;2022-08-18T15:24:27;98530.59;;;33.60;27.32
7478;BME280;3780;42.424;25.636;2022-08-18T15:27:10;98521.63;;;33.49;28.82
7478;BME280;3780;42.424;25.636;2022-08-18T15:29:36;98535.16;;;33.50;30.14
7478;BME280;3780;42.424;25.636;2022-08-18T15:32:02;98536.19;;;33.36;28.59
7478;BME280;3780;42.424;25.636;2022-08-18T15:34:28;98536.19;;;33.36;28.59
7478;BME280;3780;42.424;25.636;2022-08-18T15:36:54;65461.69;;;-142.90;100.00
7478;BME280;3780;42.424;25.636;2022-08-18T15:39:21;65461.69;;;-142.90;100.00
7478;BME280;3780;42.424;25.636;2022-08-18T15:41:47;65461.69;;;-142.90;100.00
7478;BME280;3780;42.424;25.636;2022-08-18T15:44:18;65461.69;;;-142.90;100.00
7478;BME280;3780;42.424;25.636;2022-08-18T15:46:43;65461.69;;;-142.90;100.00
7478;BME280;3780;42.424;25.636;2022-08-18T15:49:09;65461.69;;;-142.90;100.00
7478;BME280;3780;42.424;25.636;2022-08-18T15:51:37;65461.69;;;-142.90;100.00
7478;BME280;3780;42.424;25.636;2022-08-18T15:54:05;65461.69;;;-142.90;100.00